Time;durP1;ratioP1;P1;durP2;ratioP2;P2;SDS_P1;SDS_P2;PMS_P1;PMS_P2;Temp;Humidity;BMP_temperature;BMP_pressure;BME280_temperature;BME280_humidity;BME280_pressure;Samples;Min_cycle;Max_cycle;Signal;HPM_P1;HPM_P2
2022/07/15 00:02:05;;;;;;;4.00;1.17;;;13.40;99.90;;;;;;5101379;28;20301;-60
2022/07/15 00:04:31;;;;;;;3.78;1.48;;;13.40;99.90;;;;;;5083827;28;20044;-59
2022/07/15 00:06:57;;;;;;;7.00;1.17;;;13.40;99.90;;;;;;5093542;28;20089;-61
2022/07/15 00:10:13;;;;;;;;;;;13.40;99.90;;;;;;5102503;28;20036;-58
2022/07/15 00:12:08;;;;;;;5.07;1.65;;;13.40;99.90;;;;;;5102311;28;19924;-60
2022/07/15 00:14:33;;;;;;;;;;;13.40;99.90;;;;;;5104306;28;20089;-61
2022/07/15 00:16:59;;;;;;;2.67;1.30;;;13.40;99.90;;;;;;5101885;28;20387;-60
2022/07/15 00:19:24;;;;;;;;;;;13.30;99.90;;;;;;5090812;28;20123;-56
2022/07/15 00:21:50;;;;;;;4.95;1.13;;;13.30;99.90;;;;;;5084931;28;19916;-60
2022/07/15 00:24:15;;;;;;;;;;;13.30;99.90;;;;;;5090120;28;20718;-59
2022/07/15 00:26:41;;;;;;;5.95;1.50;;;13.30;99.90;;;;;;5088797;28;19924;-60
2022/07/15 00:29:07;;;;;;;;;;;13.20;99.90;;;;;;5083540;28;20028;-60
2022/07/15 00:31:33;;;;;;;2.22;1.02;;;13.20;99.90;;;;;;5089601;28;19939;-59
2022/07/15 00:33:58;;;;;;;;;;;13.20;99.90;;;;;;5089957;28;20496;-61
2022/07/15 00:36:24;;;;;;;3.78;1.17;;;13.20;99.90;;;;;;5091334;28;19916;-60
2022/07/15 00:38:49;;;;;;;;;;;13.20;99.90;;;;;;5091664;28;21032;-57
2022/07/15 00:41:15;;;;;;;5.40;1.48;;;13.20;99.90;;;;;;5088897;28;20328;-59
2022/07/15 00:43:41;;;;;;;;;;;13.20;99.90;;;;;;5089819;28;20448;-61
2022/07/15 00:46:06;;;;;;;4.80;1.58;;;13.20;99.90;;;;;;5089325;28;20014;-59
2022/07/15 00:48:32;;;;;;;;;;;13.30;99.90;;;;;;5090453;28;20070;-61
2022/07/15 00:50:59;;;;;;;6.30;1.30;;;13.30;99.90;;;;;;5088636;28;19938;-61
2022/07/15 00:53:28;;;;;;;4.07;1.10;;;13.30;99.90;;;;;;5088286;28;20474;-60
2022/07/15 00:55:58;;;;;;;4.15;1.40;;;13.30;99.90;;;;;;5088483;28;20415;-60
2022/07/15 00:58:26;;;;;;;3.95;1.42;;;13.40;99.90;;;;;;5088547;28;20048;-59
2022/07/15 01:00:53;;;;;;;6.22;1.30;;;13.50;99.90;;;;;;5089314;28;20675;-60
2022/07/15 01:03:19;;;;;;;3.85;1.30;;;13.50;99.90;;;;;;5088401;28;20038;-57
2022/07/15 01:05:46;;;;;;;5.90;1.85;;;13.50;99.90;;;;;;5088415;28;20044;-61
2022/07/15 01:08:12;;;;;;;8.50;1.58;;;13.60;99.90;;;;;;5088679;28;20052;-59
2022/07/15 01:10:39;;;;;;;3.40;1.00;;;13.60;99.90;;;;;;5089001;28;20040;-61
2022/07/15 01:13:05;;;;;;;5.25;1.60;;;13.60;99.90;;;;;;5090344;28;20035;-60
2022/07/15 01:15:32;;;;;;;;;;;13.60;99.90;;;;;;5088859;28;20440;-62
2022/07/15 01:17:59;;;;;;;;;;;13.60;99.90;;;;;;5089845;28;19916;-59
2022/07/15 01:20:24;;;;;;;7.60;1.60;;;13.60;99.90;;;;;;5087533;28;19916;-60
2022/07/15 01:22:50;;;;;;;;;;;13.60;99.90;;;;;;5078937;28;20036;-60
2022/07/15 01:25:15;;;;;;;3.33;1.25;;;13.60;99.90;;;;;;5089820;28;19923;-60
2022/07/15 01:27:41;;;;;;;;;;;13.60;99.90;;;;;;5090470;28;20395;-60
2022/07/15 01:30:07;;;;;;;7.10;1.40;;;13.60;99.90;;;;;;5091010;28;19912;-59
2022/07/15 01:32:33;;;;;;;5.95;1.58;;;13.60;99.90;;;;;;5088825;28;20582;-60
2022/07/15 01:34:59;;;;;;;;;;;13.60;99.90;;;;;;5089869;28;20653;-59
2022/07/15 01:37:25;;;;;;;5.03;1.85;;;13.60;99.90;;;;;;5087769;28;20033;-61
2022/07/15 01:39:51;;;;;;;7.78;1.98;;;13.60;99.90;;;;;;5085076;28;20035;-61
2022/07/15 01:42:16;;;;;;;;;;;13.60;99.90;;;;;;5088845;28;20031;-59
2022/07/15 01:44:42;;;;;;;5.47;1.77;;;13.60;99.90;;;;;;5087212;28;19915;-61
2022/07/15 01:47:07;;;;;;;;;;;13.60;99.90;;;;;;5084417;28;20028;-60
2022/07/15 01:49:33;;;;;;;5.20;2.28;;;13.60;99.90;;;;;;5089991;28;20379;-60
2022/07/15 01:51:59;;;;;;;;;;;13.60;99.90;;;;;;5088682;28;20046;-61
2022/07/15 01:54:27;;;;;;;8.30;1.65;;;13.60;99.90;;;;;;5088639;28;19935;-61
2022/07/15 01:56:54;;;;;;;9.10;2.78;;;13.60;99.90;;;;;;5087082;28;20040;-61
2022/07/15 01:59:25;;;;;;;4.35;1.70;;;13.60;99.90;;;;;;5088882;28;20036;-56
2022/07/15 02:01:52;;;;;;;8.13;1.90;;;13.50;99.90;;;;;;5087580;28;20036;-57
2022/07/15 02:04:18;;;;;;;4.60;1.75;;;13.50;99.90;;;;;;5089045;28;20407;-58
2022/07/15 02:06:45;;;;;;;9.23;2.03;;;13.50;99.90;;;;;;5079860;28;20048;-58
2022/07/15 02:09:11;;;;;;;8.55;2.38;;;13.50;99.90;;;;;;5088584;28;20040;-57
2022/07/15 02:11:38;;;;;;;6.68;1.40;;;13.50;99.90;;;;;;5090232;28;20047;-57
2022/07/15 02:14:03;;;;;;;;;;;13.50;99.90;;;;;;5089016;28;20100;-60
2022/07/15 02:16:30;;;;;;;5.72;1.52;;;13.50;99.90;;;;;;5086455;28;20731;-56
2022/07/15 02:18:56;;;;;;;4.18;1.90;;;13.40;99.90;;;;;;5090222;28;20044;-60
2022/07/15 02:21:22;;;;;;;4.82;1.58;;;13.50;99.90;;;;;;5090479;28;20048;-60
2022/07/15 02:23:48;;;;;;;;;;;13.50;99.90;;;;;;5087949;28;20078;-60
2022/07/15 02:26:13;;;;;;;7.50;1.48;;;13.50;99.90;;;;;;5087876;28;19987;-60
2022/07/15 02:28:39;;;;;;;;;;;13.50;99.90;;;;;;5083863;28;20040;-60
2022/07/15 02:31:05;;;;;;;9.65;1.60;;;13.50;99.90;;;;;;5085975;28;19998;-60
2022/07/15 02:33:30;;;;;;;;;;;13.50;99.90;;;;;;5090290;28;20043;-61
2022/07/15 02:35:56;;;;;;;8.98;2.13;;;13.60;99.90;;;;;;5088179;28;19963;-61
2022/07/15 02:38:22;;;;;;;;;;;13.60;99.90;;;;;;5087974;28;20614;-59
2022/07/15 02:40:48;;;;;;;3.83;1.67;;;13.60;99.90;;;;;;5089246;28;19916;-57
2022/07/15 02:43:14;;;;;;;5.30;1.80;;;13.60;99.90;;;;;;5088828;28;20138;-60
2022/07/15 02:45:40;;;;;;;;;;;13.60;99.90;;;;;;5088719;28;20131;-58
2022/07/15 02:48:06;;;;;;;12.02;1.90;;;13.60;99.90;;;;;;5087289;28;19916;-57
2022/07/15 02:50:32;;;;;;;6.72;2.13;;;13.60;99.90;;;;;;5086005;28;20814;-58
2022/07/15 02:52:58;;;;;;;4.85;2.53;;;13.60;99.90;;;;;;5089550;28;20435;-61
2022/07/15 02:55:24;;;;;;;;;;;13.60;99.90;;;;;;5088456;28;20032;-58
2022/07/15 02:57:49;;;;;;;5.85;2.53;;;13.60;99.90;;;;;;5088562;28;20491;-60
2022/07/15 03:00:17;;;;;;;;;;;13.60;99.90;;;;;;5088969;28;20036;-59
2022/07/15 03:02:43;;;;;;;7.32;2.50;;;13.60;99.90;;;;;;5088550;28;19919;-60
2022/07/15 03:05:09;;;;;;;4.63;2.40;;;13.60;99.90;;;;;;5086234;28;20696;-61
2022/07/15 03:07:35;;;;;;;;;;;13.60;99.90;;;;;;5088605;28;20122;-60
2022/07/15 03:10:01;;;;;;;7.68;2.90;;;13.50;99.90;;;;;;5085514;28;19916;-60
2022/07/15 03:12:26;;;;;;;;;;;13.50;99.90;;;;;;5088572;28;20395;-60
2022/07/15 03:14:53;;;;;;;7.30;3.05;;;13.50;99.90;;;;;;5087161;28;19938;-60
2022/07/15 03:17:18;;;;;;;9.48;2.63;;;13.50;99.90;;;;;;5085676;28;20048;-61
2022/07/15 03:19:44;;;;;;;;;;;13.50;99.90;;;;;;5087450;28;20407;-61
2022/07/15 03:22:09;;;;;;;11.73;3.38;;;13.50;99.90;;;;;;5086595;28;20063;-60
2022/07/15 03:24:35;;;;;;;;;;;13.50;99.90;;;;;;5089086;28;20101;-60
2022/07/15 03:27:00;;;;;;;14.02;3.42;;;13.60;99.90;;;;;;5088801;28;19954;-61
2022/07/15 03:29:28;;;;;;;;;;;13.50;99.90;;;;;;5087295;28;20040;-60
2022/07/15 03:31:54;;;;;;;8.07;3.15;;;13.50;99.90;;;;;;5086481;28;20347;-61
2022/07/15 03:34:20;;;;;;;;;;;13.50;99.90;;;;;;5087398;28;20040;-61
2022/07/15 03:36:46;;;;;;;13.20;3.30;;;13.30;99.90;;;;;;5087798;28;20508;-59
2022/07/15 03:39:11;;;;;;;;;;;13.20;99.90;;;;;;5084955;28;20395;-59
2022/07/15 03:41:37;;;;;;;11.50;3.38;;;13.20;99.90;;;;;;5085635;28;19916;-60
2022/07/15 03:44:03;;;;;;;;;;;13.10;99.90;;;;;;5091592;28;20040;-60
2022/07/15 03:46:29;;;;;;;11.13;3.33;;;13.10;99.90;;;;;;5087405;28;20449;-61
2022/07/15 03:48:56;;;;;;;11.80;3.72;;;13.00;99.90;;;;;;5085698;28;20086;-60
2022/07/15 03:51:24;;;;;;;14.35;3.80;;;13.10;99.90;;;;;;5085641;28;20052;-59
2022/07/15 03:53:50;;;;;;;9.68;3.90;;;13.10;99.90;;;;;;5090732;28;20548;-60
2022/07/15 03:56:15;;;;;;;;;;;13.00;99.90;;;;;;5090703;28;20040;-59
2022/07/15 03:58:41;;;;;;;12.68;3.88;;;13.10;99.90;;;;;;5091066;28;20069;-59
2022/07/15 04:01:06;;;;;;;;;;;13.00;99.90;;;;;;5090403;28;20047;-60
2022/07/15 04:03:33;;;;;;;17.88;5.65;;;13.00;99.90;;;;;;5090109;28;19916;-59
2022/07/15 04:05:59;;;;;;;14.85;4.30;;;12.90;99.90;;;;;;5090478;28;20774;-61
2022/07/15 04:08:25;;;;;;;;;;;12.90;99.90;;;;;;5091735;28;20035;-61
2022/07/15 04:10:51;;;;;;;13.43;4.43;;;13.00;99.90;;;;;;5089525;28;20084;-61
2022/07/15 04:13:18;;;;;;;;;;;13.00;99.90;;;;;;5091091;28;20036;-60
2022/07/15 04:15:46;;;;;;;13.80;4.75;;;12.90;99.90;;;;;;5089626;28;20007;-61
2022/07/15 04:18:12;;;;;;;9.73;4.65;;;12.90;99.90;;;;;;5082522;28;20115;-60
2022/07/15 04:20:37;;;;;;;;;;;12.90;99.90;;;;;;5077595;28;20663;-61
2022/07/15 04:23:03;;;;;;;12.05;5.13;;;13.00;99.90;;;;;;5069186;28;19952;-57
2022/07/15 04:25:28;;;;;;;;;;;12.90;99.90;;;;;;5075960;28;20466;-60
2022/07/15 04:27:54;;;;;;;13.88;5.28;;;12.80;99.90;;;;;;5090810;28;19916;-60
2022/07/15 04:30:20;;;;;;;;;;;12.80;99.90;;;;;;5088406;28;20043;-61
2022/07/15 04:32:46;;;;;;;9.90;4.72;;;12.80;99.90;;;;;;5089534;28;19970;-60
2022/07/15 04:35:11;;;;;;;;;;;12.90;99.90;;;;;;5088685;28;20044;-59
2022/07/15 04:37:37;;;;;;;11.80;4.15;;;12.90;99.90;;;;;;5088778;28;19916;-61
2022/07/15 04:40:02;;;;;;;;;;;12.90;99.90;;;;;;5090478;28;20032;-60
2022/07/15 04:42:28;;;;;;;10.90;4.28;;;13.00;99.90;;;;;;5090075;28;19919;-60
2022/07/15 04:44:54;;;;;;;;;;;13.00;99.90;;;;;;5092917;28;20493;-61
2022/07/15 04:47:19;;;;;;;18.35;5.00;;;13.00;99.90;;;;;;5089367;28;20336;-61
2022/07/15 04:52:30;;;;;;;11.25;4.68;;;12.90;99.90;;;;;;5091069;28;19969;-61
2022/07/15 04:54:56;;;;;;;19.67;4.85;;;12.90;99.90;;;;;;5091554;28;20495;-57
2022/07/15 04:57:22;;;;;;;16.35;4.93;;;12.90;99.90;;;;;;5090560;28;20047;-60
2022/07/15 04:59:47;;;;;;;;;;;12.90;99.90;;;;;;5092442;28;20032;-60
2022/07/15 05:02:13;;;;;;;16.40;4.70;;;12.90;99.90;;;;;;5088919;28;19969;-59
2022/07/15 05:04:39;;;;;;;;;;;13.00;99.90;;;;;;5089941;28;20531;-59
2022/07/15 05:07:05;;;;;;;14.13;5.15;;;13.00;99.90;;;;;;5090199;28;19922;-61
2022/07/15 05:09:30;;;;;;;;;;;13.10;99.90;;;;;;5090243;28;20036;-60
2022/07/15 05:11:56;;;;;;;11.10;4.43;;;13.10;99.90;;;;;;5092025;28;19927;-61
2022/07/15 05:14:22;;;;;;;;;;;13.10;99.90;;;;;;5089147;28;20186;-59
2022/07/15 05:16:47;;;;;;;13.43;3.50;;;13.10;99.90;;;;;;5089568;28;19943;-61
2022/07/15 05:19:13;;;;;;;;;;;13.10;99.90;;;;;;5088790;28;20032;-60
2022/07/15 05:21:38;;;;;;;8.02;3.67;;;13.10;99.90;;;;;;5090669;28;19916;-61
2022/07/15 05:24:04;;;;;;;;;;;13.10;99.90;;;;;;5090189;28;20054;-60
2022/07/15 05:26:29;;;;;;;8.15;3.10;;;13.20;99.90;;;;;;5088805;28;19919;-61
2022/07/15 05:28:55;;;;;;;;;;;13.30;99.90;;;;;;5088737;28;20117;-60
2022/07/15 05:31:21;;;;;;;9.23;2.80;;;13.20;99.90;;;;;;5087696;28;19916;-60
2022/07/15 05:33:47;;;;;;;12.02;3.22;;;13.10;99.90;;;;;;5090607;28;20040;-60
2022/07/15 05:36:13;;;;;;;;;;;13.20;99.90;;;;;;5089848;28;20040;-59
2022/07/15 05:38:40;;;;;;;12.48;3.63;;;13.10;99.90;;;;;;5082780;28;20023;-59
2022/07/15 05:41:06;;;;;;;13.75;3.00;;;13.10;99.90;;;;;;5079129;28;20103;-61
2022/07/15 05:43:31;;;;;;;;;;;13.20;99.90;;;;;;5076251;28;20119;-60
2022/07/15 05:45:57;;;;;;;9.45;3.90;;;13.20;99.90;;;;;;5083100;28;20019;-60
2022/07/15 05:48:23;;;;;;;10.13;4.18;;;13.30;99.90;;;;;;5077733;28;20123;-60
2022/07/15 05:50:49;;;;;;;;;;;13.30;99.90;;;;;;5067788;28;20705;-60
2022/07/15 05:53:15;;;;;;;8.65;3.60;;;13.40;99.90;;;;;;5084746;28;19920;-59
2022/07/15 05:55:41;;;;;;;8.48;3.67;;;13.40;99.90;;;;;;5075339;28;20059;-60
2022/07/15 05:58:07;;;;;;;;;;;13.40;99.90;;;;;;5079747;28;20454;-59
2022/07/15 06:00:33;;;;;;;8.50;3.42;;;13.40;99.90;;;;;;5079110;28;19920;-58
2022/07/15 06:02:58;;;;;;;;;;;13.30;99.90;;;;;;5081634;28;20494;-60
2022/07/15 06:05:24;;;;;;;12.98;4.88;;;13.20;99.90;;;;;;5088046;28;19920;-60
2022/07/15 06:07:50;;;;;;;;;;;13.10;99.90;;;;;;5087561;28;20036;-60
2022/07/15 06:10:15;;;;;;;9.52;4.30;;;13.10;99.90;;;;;;5088178;28;19920;-60
2022/07/15 06:12:41;;;;;;;;;;;13.10;99.90;;;;;;5081241;28;20476;-63
2022/07/15 06:15:07;;;;;;;15.90;4.90;;;13.10;99.90;;;;;;5081580;28;19924;-58
2022/07/15 06:17:33;;;;;;;10.77;4.38;;;13.00;99.90;;;;;;5078424;28;20102;-61
2022/07/15 06:19:59;;;;;;;11.98;4.50;;;13.00;99.90;;;;;;5078324;28;20052;-64
2022/07/15 06:22:25;;;;;;;;;;;13.00;99.90;;;;;;5081536;28;20047;-65
2022/07/15 06:24:50;;;;;;;10.02;4.63;;;13.00;99.90;;;;;;5075997;28;19920;-65
2022/07/15 06:27:21;;;;;;;;;;;13.00;99.90;;;;;;5083347;28;20096;-64
2022/07/15 06:29:50;;;;;;;10.30;4.22;;;13.00;99.90;;;;;;5086569;28;19922;-65
2022/07/15 06:32:17;;;;;;;15.27;4.15;;;13.00;99.90;;;;;;5080041;28;20040;-64
2022/07/15 06:34:43;;;;;;;12.73;4.60;;;12.90;99.90;;;;;;5085077;28;20036;-64
2022/07/15 06:37:09;;;;;;;;;;;13.00;99.90;;;;;;5079791;28;20059;-60
2022/07/15 06:39:34;;;;;;;10.65;3.83;;;13.00;99.90;;;;;;5080699;28;19939;-63
2022/07/15 06:42:00;;;;;;;;;;;12.80;99.90;;;;;;5079198;28;20032;-64
2022/07/15 06:44:26;;;;;;;7.72;2.70;;;12.70;99.90;;;;;;5085084;28;20092;-61
2022/07/15 06:46:52;;;;;;;;;;;12.50;99.90;;;;;;5077797;28;20129;-63
2022/07/15 06:49:17;;;;;;;10.95;4.07;;;12.30;99.90;;;;;;5085076;28;20398;-63
2022/07/15 06:51:43;;;;;;;;;;;12.30;99.90;;;;;;5066996;28;20127;-63
2022/07/15 06:54:09;;;;;;;15.02;4.07;;;12.30;99.90;;;;;;5084636;28;19922;-63
2022/07/15 06:56:34;;;;;;;;;;;12.30;99.90;;;;;;5086546;28;20046;-63
2022/07/15 06:59:00;;;;;;;16.98;4.65;;;12.30;99.90;;;;;;5086837;28;19916;-62
2022/07/15 07:01:25;;;;;;;;;;;12.40;99.90;;;;;;5087377;28;20040;-62
2022/07/15 07:03:51;;;;;;;12.95;4.70;;;12.50;99.90;;;;;;5087410;28;19981;-62
2022/07/15 07:06:16;;;;;;;;;;;12.50;99.90;;;;;;5087227;28;20072;-62
2022/07/15 07:08:42;;;;;;;10.50;3.90;;;12.50;99.90;;;;;;5084857;28;20287;-62
2022/07/15 07:11:07;;;;;;;;;;;12.50;99.90;;;;;;5088268;28;20028;-62
2022/07/15 07:13:33;;;;;;;11.25;4.22;;;12.80;99.90;;;;;;5087369;28;19990;-62
2022/07/15 07:15:59;;;;;;;;;;;13.30;99.90;;;;;;5087872;28;20547;-62
2022/07/15 07:18:25;;;;;;;7.07;2.60;;;13.70;99.90;;;;;;5086896;28;20407;-63
2022/07/15 07:20:50;;;;;;;;;;;13.90;99.90;;;;;;5086289;28;20518;-63
2022/07/15 07:23:16;;;;;;;9.73;2.47;;;13.70;99.90;;;;;;5086082;28;19963;-62
2022/07/15 07:25:41;;;;;;;;;;;13.60;99.90;;;;;;5089839;28;20476;-62
2022/07/15 07:28:07;;;;;;;10.85;2.17;;;13.60;99.90;;;;;;5089277;28;19916;-63
2022/07/15 07:30:33;;;;;;;;;;;13.50;99.90;;;;;;5092040;28;20036;-61
2022/07/15 07:32:59;;;;;;;9.35;1.77;;;13.40;99.90;;;;;;5091448;28;20087;-63
2022/07/15 07:35:24;;;;;;;;;;;13.50;99.90;;;;;;5091888;28;20488;-61
2022/07/15 07:37:50;;;;;;;6.18;1.30;;;13.50;99.90;;;;;;5091454;28;19916;-62
2022/07/15 07:40:16;;;;;;;;;;;13.40;99.90;;;;;;5091413;28;20445;-63
2022/07/15 07:42:44;;;;;;;4.97;1.30;;;13.40;99.90;;;;;;5090139;28;19916;-62
2022/07/15 07:45:10;;;;;;;6.50;1.77;;;13.40;99.90;;;;;;5090679;28;20404;-63
2022/07/15 07:47:39;;;;;;;6.45;1.30;;;13.30;99.90;;;;;;5089590;28;20477;-63
2022/07/15 07:50:07;;;;;;;5.97;1.67;;;13.50;99.90;;;;;;5090209;28;20044;-62
2022/07/15 07:52:32;;;;;;;6.20;1.42;;;13.50;99.90;;;;;;5090309;28;20044;-62
2022/07/15 07:54:58;;;;;;;;;;;13.60;99.90;;;;;;5091363;28;20196;-62
2022/07/15 07:57:24;;;;;;;8.70;1.33;;;13.80;99.90;;;;;;5090768;28;20417;-62
2022/07/15 07:59:49;;;;;;;;;;;14.00;99.90;;;;;;5090778;28;20036;-62
2022/07/15 08:02:15;;;;;;;9.95;2.10;;;14.10;99.90;;;;;;5090497;28;19927;-63
2022/07/15 08:04:41;;;;;;;;;;;14.10;99.90;;;;;;5091318;28;20036;-63
2022/07/15 08:07:07;;;;;;;6.40;1.40;;;14.10;99.90;;;;;;5090416;28;19955;-63
2022/07/15 08:09:33;;;;;;;11.30;1.67;;;14.00;99.90;;;;;;5090184;28;20051;-62
2022/07/15 08:11:58;;;;;;;;;;;14.10;99.90;;;;;;5090721;28;20399;-61
2022/07/15 08:14:24;;;;;;;5.05;1.25;;;14.20;99.90;;;;;;5090343;28;20276;-62
2022/07/15 08:16:50;;;;;;;;;;;14.30;99.90;;;;;;5090711;28;20047;-62
2022/07/15 08:19:16;;;;;;;7.30;1.10;;;14.40;99.90;;;;;;5083321;28;19915;-63
2022/07/15 08:21:42;;;;;;;5.40;1.20;;;14.50;99.90;;;;;;5090107;28;20056;-62
2022/07/15 08:24:08;;;;;;;7.93;1.52;;;15.00;99.90;;;;;;5090024;28;20050;-62
2022/07/15 08:26:33;;;;;;;;;;;15.00;98.90;;;;;;5089482;28;20048;-62
2022/07/15 08:28:59;;;;;;;7.43;1.20;;;15.10;99.50;;;;;;5088312;28;19916;-63
2022/07/15 08:31:24;;;;;;;;;;;15.00;98.90;;;;;;5081889;28;20068;-62
2022/07/15 08:33:50;;;;;;;5.97;1.00;;;15.00;97.00;;;;;;5080687;28;19920;-62
2022/07/15 08:36:16;;;;;;;;;;;14.90;96.70;;;;;;5089370;28;20074;-62
2022/07/15 08:38:41;;;;;;;5.13;1.10;;;14.80;97.80;;;;;;5086137;28;19923;-63
2022/07/15 08:41:07;;;;;;;;;;;14.80;98.10;;;;;;5088859;28;20780;-62
2022/07/15 08:43:33;;;;;;;5.22;0.88;;;14.90;98.80;;;;;;5089706;28;19923;-63
2022/07/15 08:45:58;;;;;;;;;;;14.90;97.70;;;;;;5081137;28;20035;-62
2022/07/15 08:48:28;;;;;;;7.72;1.27;;;14.90;97.80;;;;;;5088783;28;19943;-63
2022/07/15 08:50:55;;;;;;;12.32;1.23;;;15.10;97.20;;;;;;5089926;28;20070;-62
2022/07/15 08:53:21;;;;;;;6.40;1.20;;;15.00;97.80;;;;;;5089816;28;20190;-62
2022/07/15 08:55:46;;;;;;;;;;;15.20;96.10;;;;;;5089904;28;20044;-62
2022/07/15 08:58:12;;;;;;;7.35;1.10;;;15.30;95.80;;;;;;5089589;28;19916;-63
2022/07/15 09:00:38;;;;;;;;;;;15.40;95.30;;;;;;5088226;28;20682;-63
2022/07/15 09:03:09;;;;;;;3.30;0.90;;;15.30;95.50;;;;;;5090019;28;19967;-60
2022/07/15 09:05:36;;;;;;;6.45;1.08;;;15.00;96.20;;;;;;5090158;28;20044;-62
2022/07/15 09:08:14;;;;;;;3.25;0.75;;;14.90;96.20;;;;;;5091782;28;20040;-62
2022/07/15 09:10:54;;;;;;;5.53;0.77;;;14.80;96.30;;;;;;5088298;28;20036;-57
2022/07/15 09:13:31;;;;;;;2.50;0.93;;;14.80;96.00;;;;;;5088557;28;20036;-62
2022/07/15 09:16:05;;;;;;;8.13;1.45;;;14.70;96.40;;;;;;5090483;28;20044;-60
2022/07/15 09:18:35;;;;;;;2.83;0.70;;;14.80;96.80;;;;;;5087324;28;20090;-62
2022/07/15 09:21:01;;;;;;;9.57;1.00;;;14.70;95.50;;;;;;5086288;28;20036;-60
2022/07/15 09:23:30;;;;;;;;;;;14.80;96.40;;;;;;5085706;28;20040;-63
2022/07/15 09:26:20;;;;;;;8.38;1.27;;;14.90;96.10;;;;;;5085959;28;19928;-65
2022/07/15 09:28:46;;;;;;;6.32;1.20;;;14.90;96.00;;;;;;5077501;28;20041;-62
2022/07/15 09:34:02;;;;;;;3.20;0.90;;;15.00;95.70;;;;;;5071439;28;19955;-62
2022/07/15 09:36:30;;;;;;;4.28;0.95;;;15.00;95.80;;;;;;5082324;28;20040;-61
2022/07/15 09:39:01;;;;;;;5.32;0.80;;;14.90;94.90;;;;;;5083618;28;20051;-62
2022/07/15 09:41:35;;;;;;;8.57;1.30;;;14.90;95.90;;;;;;5089205;28;20438;-62
2022/07/15 09:44:01;;;;;;;8.07;0.98;;;14.90;95.00;;;;;;5088054;28;20046;-60
2022/07/15 09:46:39;;;;;;;;;;;15.10;95.70;;;;;;5087235;28;20045;-62
2022/07/15 09:49:05;;;;;;;7.80;1.75;;;15.10;96.00;;;;;;5087899;28;19927;-61
2022/07/15 09:51:41;;;;;;;;;;;15.20;94.90;;;;;;5087519;28;20039;-62
2022/07/15 09:54:08;;;;;;;3.92;0.70;;;15.20;94.80;;;;;;5086990;28;20079;-62
2022/07/15 09:56:34;;;;;;;4.20;0.85;;;15.20;94.70;;;;;;5087996;28;20484;-60
2022/07/15 09:59:01;;;;;;;;;;;15.30;94.20;;;;;;5052352;28;20051;-63
2022/07/15 10:01:27;;;;;;;;;;;15.20;93.70;;;;;;5087518;28;19923;-63
2022/07/15 10:03:53;;;;;;;5.22;0.80;;;15.20;94.90;;;;;;5087576;28;19920;-65
2022/07/15 10:06:21;;;;;;;2.40;0.75;;;15.20;94.60;;;;;;5087089;28;20138;-63
2022/07/15 10:08:47;;;;;;;6.55;0.60;;;15.30;94.40;;;;;;5085483;28;20067;-65
2022/07/15 10:11:13;;;;;;;7.82;0.80;;;15.40;94.70;;;;;;5087085;28;20085;-64
2022/07/15 10:13:47;;;;;;;;;;;15.50;95.60;;;;;;5087443;28;20055;-65
2022/07/15 10:16:44;;;;;;;4.65;1.42;;;15.60;94.70;;;;;;5086318;28;19965;-63
2022/07/15 10:19:38;;;;;;;1.93;0.70;;;15.70;93.70;;;;;;5085876;28;20146;-63
2022/07/15 10:22:22;;;;;;;7.50;1.23;;;15.90;94.50;;;;;;5081063;28;20306;-61
2022/07/15 10:25:12;;;;;;;6.65;1.00;;;15.90;94.80;;;;;;5086697;28;20479;-62
2022/07/15 10:28:05;;;;;;;2.55;0.60;;;15.80;94.30;;;;;;5083073;28;20048;-63
2022/07/15 10:30:32;;;;;;;2.97;0.90;;;15.80;95.60;;;;;;5083952;28;20044;-63
2022/07/15 10:33:03;;;;;;;5.72;1.20;;;16.10;93.40;;;;;;5066574;28;20037;-62
2022/07/15 10:35:51;;;;;;;8.80;0.70;;;15.70;94.10;;;;;;5074228;28;20393;-61
2022/07/15 10:38:23;;;;;;;7.72;1.00;;;15.70;93.90;;;;;;5084845;28;20040;-61
2022/07/15 10:41:04;;;;;;;3.83;0.80;;;16.10;95.00;;;;;;5083509;28;20032;-62
2022/07/15 10:43:48;;;;;;;7.70;0.93;;;16.50;92.90;;;;;;5086709;28;20047;-63
2022/07/15 10:46:17;;;;;;;8.45;0.85;;;16.60;93.20;;;;;;5082885;28;20412;-63
2022/07/15 10:49:13;;;;;;;3.15;0.70;;;16.60;92.60;;;;;;5087542;28;20032;-64
2022/07/15 10:51:39;;;;;;;9.48;1.00;;;16.60;93.80;;;;;;5085615;28;20040;-63
2022/07/15 10:54:11;;;;;;;2.80;0.68;;;16.40;92.50;;;;;;5082979;28;20039;-63
2022/07/15 10:56:45;;;;;;;5.40;0.80;;;16.10;92.10;;;;;;5086569;28;20629;-63
2022/07/15 10:59:10;;;;;;;4.13;0.80;;;15.90;93.50;;;;;;5086481;28;20119;-63
2022/07/15 11:01:36;;;;;;;;;;;15.90;94.00;;;;;;5082563;28;20123;-62
2022/07/15 11:04:18;;;;;;;5.03;1.00;;;15.80;94.40;;;;;;5083654;28;20394;-63
2022/07/15 11:07:02;;;;;;;4.72;1.50;;;15.80;94.60;;;;;;5077893;28;20071;-62
2022/07/15 11:09:44;;;;;;;2.15;0.70;;;16.00;93.90;;;;;;5084539;28;20744;-62
2022/07/15 11:12:11;;;;;;;6.50;1.48;;;16.10;93.90;;;;;;5085616;28;20028;-63
2022/07/15 11:14:43;;;;;;;5.30;1.63;;;16.30;93.00;;;;;;5086863;28;20129;-62
2022/07/15 11:17:10;;;;;;;4.68;1.13;;;16.50;94.20;;;;;;5086181;28;20043;-63
2022/07/15 11:19:36;;;;;;;4.78;1.00;;;16.50;93.60;;;;;;5086114;28;20424;-63
2022/07/15 11:22:02;;;;;;;4.70;1.10;;;16.40;94.30;;;;;;5087318;28;20051;-63
2022/07/15 11:24:28;;;;;;;;;;;16.30;93.80;;;;;;5088729;28;20039;-62
2022/07/15 11:26:54;;;;;;;2.08;1.08;;;16.20;93.90;;;;;;5084770;28;20045;-63
2022/07/15 11:29:19;;;;;;;;;;;16.10;93.50;;;;;;5086106;28;20051;-63
2022/07/15 11:31:45;;;;;;;5.57;0.80;;;16.00;92.80;;;;;;5085562;28;20302;-62
2022/07/15 11:34:11;;;;;;;;;;;16.00;93.90;;;;;;5086835;28;20089;-63
2022/07/15 11:36:36;;;;;;;4.53;0.93;;;15.90;93.30;;;;;;5085748;28;20310;-63
2022/07/15 11:39:02;;;;;;;;;;;15.90;94.40;;;;;;5084744;28;20043;-63
2022/07/15 11:44:31;;;;;;;1.88;0.90;;;16.40;95.50;;;;;;5088193;28;20060;-63
2022/07/15 11:46:59;;;;;;;6.35;1.52;;;16.40;93.10;;;;;;5083368;28;20459;-63
2022/07/15 11:49:30;;;;;;;6.70;1.15;;;16.40;93.40;;;;;;5086274;28;20543;-62
2022/07/15 11:51:58;;;;;;;3.28;0.82;;;16.60;93.30;;;;;;5086773;28;20064;-63
2022/07/15 11:54:25;;;;;;;3.40;0.90;;;16.70;92.70;;;;;;5085994;28;20040;-63
2022/07/15 11:57:13;;;;;;;2.75;0.90;;;16.70;92.90;;;;;;5086297;28;20127;-63
2022/07/15 11:59:39;;;;;;;5.78;0.90;;;16.70;92.30;;;;;;5085345;28;20059;-62
2022/07/15 12:02:12;;;;;;;9.20;0.82;;;16.60;92.70;;;;;;5084968;28;20040;-63
2022/07/15 12:04:40;;;;;;;7.10;1.13;;;16.60;92.90;;;;;;5086004;28;20118;-63
2022/07/15 12:07:07;;;;;;;4.38;1.10;;;16.60;92.20;;;;;;5086746;28;20534;-62
2022/07/15 12:09:44;;;;;;;8.48;1.30;;;16.40;93.10;;;;;;5078869;28;20523;-62
2022/07/15 12:12:10;;;;;;;3.60;0.80;;;16.30;93.40;;;;;;5076131;28;20047;-62
2022/07/15 12:14:36;;;;;;;3.38;0.93;;;16.40;93.50;;;;;;5077171;28;20047;-62
2022/07/15 12:17:03;;;;;;;;;;;16.50;92.90;;;;;;5080079;28;20044;-62
2022/07/15 12:19:30;;;;;;;5.47;0.93;;;16.60;93.00;;;;;;5080074;28;19927;-63
2022/07/15 12:22:05;;;;;;;5.85;1.38;;;17.00;91.90;;;;;;5079236;28;20036;-62
2022/07/15 12:24:43;;;;;;;5.68;1.20;;;16.80;91.60;;;;;;5081202;28;20032;-63
2022/07/15 12:27:10;;;;;;;6.13;1.00;;;16.80;92.20;;;;;;5081274;28;20063;-63
2022/07/15 12:29:37;;;;;;;6.65;1.10;;;16.90;92.10;;;;;;5079709;28;20033;-63
2022/07/15 12:32:09;;;;;;;7.30;1.45;;;16.90;91.40;;;;;;5076405;28;20043;-63
2022/07/15 12:34:47;;;;;;;6.97;0.93;;;17.00;92.50;;;;;;5078822;28;20115;-62
2022/07/15 12:37:18;;;;;;;4.47;1.00;;;17.00;90.80;;;;;;5081306;28;20384;-63
2022/07/15 12:40:05;;;;;;;4.90;1.15;;;16.70;91.50;;;;;;5081577;28;20039;-63
2022/07/15 12:42:37;;;;;;;4.60;0.93;;;16.80;91.70;;;;;;5079666;28;20097;-62
2022/07/15 12:45:16;;;;;;;9.63;1.10;;;16.80;91.60;;;;;;5079426;28;20110;-61
2022/07/15 12:48:05;;;;;;;8.73;1.50;;;16.80;91.10;;;;;;5078458;28;20039;-62
2022/07/15 12:50:55;;;;;;;5.78;1.17;;;16.80;91.80;;;;;;5087266;28;20036;-61
2022/07/15 12:53:23;;;;;;;7.75;1.40;;;16.90;92.30;;;;;;5085871;28;20048;-63
2022/07/15 12:55:51;;;;;;;9.48;1.35;;;17.40;91.80;;;;;;5077036;28;20115;-63
2022/07/15 12:58:23;;;;;;;7.10;1.52;;;17.50;90.50;;;;;;5087828;28;20044;-63
2022/07/15 13:00:49;;;;;;;3.53;0.88;;;17.50;88.70;;;;;;5083534;28;20103;-63
2022/07/15 13:03:16;;;;;;;;;;;17.40;89.30;;;;;;5068543;28;20143;-62
2022/07/15 13:05:44;;;;;;;4.55;1.17;;;17.30;88.40;;;;;;5088384;28;20435;-63
2022/07/15 13:08:14;;;;;;;6.00;1.20;;;17.10;90.60;;;;;;5087163;28;20075;-61
2022/07/15 13:10:42;;;;;;;2.40;0.80;;;17.00;91.10;;;;;;5088070;28;20751;-63
2022/07/15 13:13:08;;;;;;;5.82;1.05;;;16.90;92.00;;;;;;5088686;28;20071;-63
2022/07/15 13:15:34;;;;;;;4.07;0.95;;;17.00;93.00;;;;;;5088144;28;20051;-62
2022/07/15 13:18:00;;;;;;;;;;;17.00;93.10;;;;;;5087937;28;20032;-63
2022/07/15 13:20:26;;;;;;;9.27;1.27;;;17.00;91.70;;;;;;5079345;28;20509;-63
2022/07/15 13:22:52;;;;;;;4.05;1.08;;;16.90;91.40;;;;;;5078776;28;20067;-63